sensor_id;sensor_type;location;lat;lon;timestamp;temperature;humidity
55673;DHT22;41554;45.366;20.400;2022-10-17T02:44:43;307.80;2304.00
55673;DHT22;41554;45.366;20.400;2022-10-17T02:47:27;307.70;2304.00
55673;DHT22;41554;45.366;20.400;2022-10-17T02:49:56;307.60;2304.00
55673;DHT22;41554;45.366;20.400;2022-10-17T02:52:41;307.50;2304.00
55673;DHT22;41554;45.366;20.400;2022-10-17T02:55:27;307.50;2304.00
55673;DHT22;41554;45.366;20.400;2022-10-17T02:58:18;307.50;2304.00
55673;DHT22;41554;45.366;20.400;2022-10-17T03:00:44;307.50;2304.00
55673;DHT22;41554;45.366;20.400;2022-10-17T03:03:24;307.50;2304.00
55673;DHT22;41554;45.366;20.400;2022-10-17T03:05:51;307.50;2304.00
55673;DHT22;41554;45.366;20.400;2022-10-17T03:08:17;307.40;2304.00
55673;DHT22;41554;45.366;20.400;2022-10-17T03:10:43;307.40;2304.00
55673;DHT22;41554;45.366;20.400;2022-10-17T03:13:09;307.40;2304.00
55673;DHT22;41554;45.366;20.400;2022-10-17T03:15:34;307.30;2304.00
55673;DHT22;41554;45.366;20.400;2022-10-17T03:18:00;307.30;2304.00
55673;DHT22;41554;45.366;20.400;2022-10-17T03:20:26;307.30;2304.00
55673;DHT22;41554;45.366;20.400;2022-10-17T03:22:51;307.20;2304.00
55673;DHT22;41554;45.366;20.400;2022-10-17T03:25:17;307.20;2304.00
55673;DHT22;41554;45.366;20.400;2022-10-17T03:27:43;307.20;2304.00
55673;DHT22;41554;45.366;20.400;2022-10-17T03:30:09;282.50;2278.40
55673;DHT22;41554;45.366;20.400;2022-10-17T03:32:34;282.40;2278.40
55673;DHT22;41554;45.366;20.400;2022-10-17T03:35:01;282.40;2278.40
55673;DHT22;41554;45.366;20.400;2022-10-17T03:37:27;282.40;2278.40
55673;DHT22;41554;45.366;20.400;2022-10-17T03:39:52;282.30;2278.40
55673;DHT22;41554;45.366;20.400;2022-10-17T03:42:18;307.20;2304.00
55673;DHT22;41554;45.366;20.400;2022-10-17T03:44:44;282.50;2278.40
55673;DHT22;41554;45.366;20.400;2022-10-17T03:47:10;282.40;2278.40
55673;DHT22;41554;45.366;20.400;2022-10-17T03:49:35;282.50;2278.40
55673;DHT22;41554;45.366;20.400;2022-10-17T03:52:01;282.50;2278.40
55673;DHT22;41554;45.366;20.400;2022-10-17T03:54:27;282.40;2278.40
55673;DHT22;41554;45.366;20.400;2022-10-17T03:56:53;282.40;2278.40
55673;DHT22;41554;45.366;20.400;2022-10-17T03:59:19;282.30;2278.40
55673;DHT22;41554;45.366;20.400;2022-10-17T04:01:44;282.40;2278.40
55673;DHT22;41554;45.366;20.400;2022-10-17T04:04:10;282.40;2278.40
55673;DHT22;41554;45.366;20.400;2022-10-17T04:06:36;282.40;2278.40
55673;DHT22;41554;45.366;20.400;2022-10-17T04:09:03;282.40;2278.40
55673;DHT22;41554;45.366;20.400;2022-10-17T04:11:29;282.50;2278.40
55673;DHT22;41554;45.366;20.400;2022-10-17T04:13:56;282.40;2278.40
55673;DHT22;41554;45.366;20.400;2022-10-17T04:16:22;282.40;2278.40
55673;DHT22;41554;45.366;20.400;2022-10-17T04:18:55;282.40;2278.40
55673;DHT22;41554;45.366;20.400;2022-10-17T04:21:23;282.30;2278.40
55673;DHT22;41554;45.366;20.400;2022-10-17T04:23:53;282.20;2278.40
55673;DHT22;41554;45.366;20.400;2022-10-17T04:26:19;282.20;2278.40
55673;DHT22;41554;45.366;20.400;2022-10-17T04:28:45;282.20;2278.40
55673;DHT22;41554;45.366;20.400;2022-10-17T04:31:12;282.20;2278.40
55673;DHT22;41554;45.366;20.400;2022-10-17T04:33:39;282.20;2278.40
55673;DHT22;41554;45.366;20.400;2022-10-17T04:36:09;282.20;2278.40
55673;DHT22;41554;45.366;20.400;2022-10-17T04:38:35;282.20;2278.40
55673;DHT22;41554;45.366;20.400;2022-10-17T04:41:03;282.20;2278.40
55673;DHT22;41554;45.366;20.400;2022-10-17T04:43:30;282.30;2278.40
55673;DHT22;41554;45.366;20.400;2022-10-17T04:45:57;282.40;2278.40
55673;DHT22;41554;45.366;20.400;2022-10-17T04:48:23;282.20;2278.40
55673;DHT22;41554;45.366;20.400;2022-10-17T04:50:53;282.20;2278.40
55673;DHT22;41554;45.366;20.400;2022-10-17T04:53:19;282.10;2278.40
55673;DHT22;41554;45.366;20.400;2022-10-17T04:55:45;282.20;2278.40
55673;DHT22;41554;45.366;20.400;2022-10-17T04:58:10;282.20;2278.40
55673;DHT22;41554;45.366;20.400;2022-10-17T05:00:36;282.20;2278.40
55673;DHT22;41554;45.366;20.400;2022-10-17T05:03:02;282.30;2278.40
55673;DHT22;41554;45.366;20.400;2022-10-17T05:05:27;282.20;2278.40
55673;DHT22;41554;45.366;20.400;2022-10-17T05:07:53;282.30;2278.40
55673;DHT22;41554;45.366;20.400;2022-10-17T05:10:19;282.30;2278.40
55673;DHT22;41554;45.366;20.400;2022-10-17T05:12:46;282.40;2278.40
55673;DHT22;41554;45.366;20.400;2022-10-17T05:15:13;282.30;2278.40
55673;DHT22;41554;45.366;20.400;2022-10-17T05:17:38;282.40;2278.40
55673;DHT22;41554;45.366;20.400;2022-10-17T05:20:05;282.40;2278.40
55673;DHT22;41554;45.366;20.400;2022-10-17T05:22:31;282.20;2278.40
55673;DHT22;41554;45.366;20.400;2022-10-17T05:24:56;282.30;2278.40
55673;DHT22;41554;45.366;20.400;2022-10-17T05:27:22;282.40;2278.40
55673;DHT22;41554;45.366;20.400;2022-10-17T05:29:48;282.40;2278.40
55673;DHT22;41554;45.366;20.400;2022-10-17T05:32:14;282.50;2278.40
55673;DHT22;41554;45.366;20.400;2022-10-17T05:34:40;307.20;2304.00
55673;DHT22;41554;45.366;20.400;2022-10-17T05:37:06;307.30;2304.00
55673;DHT22;41554;45.366;20.400;2022-10-17T05:39:31;307.40;2304.00
55673;DHT22;41554;45.366;20.400;2022-10-17T05:41:57;307.50;2304.00
55673;DHT22;41554;45.366;20.400;2022-10-17T05:44:23;307.70;2304.00
55673;DHT22;41554;45.366;20.400;2022-10-17T05:46:49;307.80;2304.00
55673;DHT22;41554;45.366;20.400;2022-10-17T05:49:15;307.90;2304.00
55673;DHT22;41554;45.366;20.400;2022-10-17T05:51:41;308.00;2304.00
55673;DHT22;41554;45.366;20.400;2022-10-17T05:54:06;332.80;2329.60
55673;DHT22;41554;45.366;20.400;2022-10-17T05:56:33;333.10;2329.60
